sensor_id;sensor_type;location;lat;lon;timestamp;P1;durP1;ratioP1;P2;durP2;ratioP2
40433;SDS011;26146;51.114;5.654;2022-12-18T00:01:15;51.53;;;18.23;;
40433;SDS011;26146;51.114;5.654;2022-12-18T00:05:18;50.13;;;16.60;;
40433;SDS011;26146;51.114;5.654;2022-12-18T00:09:19;44.33;;;16.50;;
40433;SDS011;26146;51.114;5.654;2022-12-18T00:13:20;50.07;;;17.43;;
40433;SDS011;26146;51.114;5.654;2022-12-18T00:17:21;43.97;;;15.87;;
40433;SDS011;26146;51.114;5.654;2022-12-18T00:21:22;39.63;;;14.43;;
40433;SDS011;26146;51.114;5.654;2022-12-18T00:25:23;45.23;;;15.87;;
40433;SDS011;26146;51.114;5.654;2022-12-18T00:29:24;42.27;;;15.67;;
40433;SDS011;26146;51.114;5.654;2022-12-18T00:33:25;42.47;;;15.00;;
40433;SDS011;26146;51.114;5.654;2022-12-18T00:37:27;41.17;;;14.97;;
40433;SDS011;26146;51.114;5.654;2022-12-18T00:41:27;40.80;;;14.33;;
40433;SDS011;26146;51.114;5.654;2022-12-18T00:45:47;37.60;;;13.90;;
40433;SDS011;26146;51.114;5.654;2022-12-18T00:49:48;38.50;;;13.67;;
40433;SDS011;26146;51.114;5.654;2022-12-18T00:53:49;38.57;;;13.67;;
40433;SDS011;26146;51.114;5.654;2022-12-18T00:57:51;37.93;;;13.20;;
40433;SDS011;26146;51.114;5.654;2022-12-18T01:01:52;34.77;;;13.47;;
40433;SDS011;26146;51.114;5.654;2022-12-18T01:05:53;36.97;;;13.87;;
40433;SDS011;26146;51.114;5.654;2022-12-18T01:09:54;38.60;;;13.87;;
40433;SDS011;26146;51.114;5.654;2022-12-18T01:13:55;40.90;;;14.30;;
40433;SDS011;26146;51.114;5.654;2022-12-18T01:17:56;37.73;;;14.03;;
40433;SDS011;26146;51.114;5.654;2022-12-18T01:21:57;42.73;;;13.80;;
40433;SDS011;26146;51.114;5.654;2022-12-18T01:26:03;43.13;;;14.03;;
40433;SDS011;26146;51.114;5.654;2022-12-18T01:30:06;37.47;;;13.63;;
40433;SDS011;26146;51.114;5.654;2022-12-18T01:34:08;41.57;;;13.60;;
40433;SDS011;26146;51.114;5.654;2022-12-18T01:38:10;41.07;;;13.50;;
40433;SDS011;26146;51.114;5.654;2022-12-18T01:42:12;37.90;;;12.60;;
40433;SDS011;26146;51.114;5.654;2022-12-18T01:46:16;39.30;;;12.70;;
40433;SDS011;26146;51.114;5.654;2022-12-18T01:54:39;35.70;;;12.37;;
40433;SDS011;26146;51.114;5.654;2022-12-18T01:59:13;34.90;;;12.23;;
40433;SDS011;26146;51.114;5.654;2022-12-18T02:03:08;34.17;;;12.30;;
40433;SDS011;26146;51.114;5.654;2022-12-18T02:07:13;36.57;;;11.67;;
40433;SDS011;26146;51.114;5.654;2022-12-18T02:16:02;34.97;;;11.50;;
40433;SDS011;26146;51.114;5.654;2022-12-18T02:20:21;31.63;;;11.03;;
40433;SDS011;26146;51.114;5.654;2022-12-18T02:29:05;31.50;;;10.93;;
40433;SDS011;26146;51.114;5.654;2022-12-18T02:33:11;31.63;;;10.40;;
40433;SDS011;26146;51.114;5.654;2022-12-18T02:37:14;28.30;;;10.33;;
40433;SDS011;26146;51.114;5.654;2022-12-18T02:41:17;28.37;;;10.53;;
40433;SDS011;26146;51.114;5.654;2022-12-18T02:45:19;28.77;;;10.27;;
40433;SDS011;26146;51.114;5.654;2022-12-18T02:49:42;28.60;;;10.37;;
40433;SDS011;26146;51.114;5.654;2022-12-18T02:53:58;27.83;;;10.47;;
40433;SDS011;26146;51.114;5.654;2022-12-18T03:02:30;30.87;;;10.33;;
40433;SDS011;26146;51.114;5.654;2022-12-18T03:06:43;30.60;;;10.13;;
40433;SDS011;26146;51.114;5.654;2022-12-18T03:10:49;30.27;;;10.03;;
40433;SDS011;26146;51.114;5.654;2022-12-18T03:15:02;30.13;;;9.87;;
40433;SDS011;26146;51.114;5.654;2022-12-18T03:19:24;36.10;;;11.73;;
40433;SDS011;26146;51.114;5.654;2022-12-18T03:23:29;32.10;;;11.15;;
40433;SDS011;26146;51.114;5.654;2022-12-18T03:27:34;30.23;;;10.73;;
40433;SDS011;26146;51.114;5.654;2022-12-18T03:31:40;31.58;;;11.00;;
40433;SDS011;26146;51.114;5.654;2022-12-18T03:35:46;31.03;;;10.60;;
40433;SDS011;26146;51.114;5.654;2022-12-18T03:39:47;27.23;;;9.53;;
40433;SDS011;26146;51.114;5.654;2022-12-18T03:43:52;28.07;;;9.73;;
40433;SDS011;26146;51.114;5.654;2022-12-18T03:48:18;29.73;;;9.83;;
40433;SDS011;26146;51.114;5.654;2022-12-18T03:52:33;31.57;;;10.13;;
40433;SDS011;26146;51.114;5.654;2022-12-18T03:56:40;27.43;;;10.20;;
40433;SDS011;26146;51.114;5.654;2022-12-18T04:00:45;31.27;;;10.30;;
40433;SDS011;26146;51.114;5.654;2022-12-18T04:04:53;34.85;;;10.73;;
40433;SDS011;26146;51.114;5.654;2022-12-18T04:08:59;28.90;;;9.67;;
40433;SDS011;26146;51.114;5.654;2022-12-18T04:13:01;27.73;;;9.50;;
40433;SDS011;26146;51.114;5.654;2022-12-18T04:17:02;29.57;;;10.07;;
40433;SDS011;26146;51.114;5.654;2022-12-18T04:21:03;29.77;;;9.63;;
40433;SDS011;26146;51.114;5.654;2022-12-18T04:25:04;27.23;;;9.17;;
40433;SDS011;26146;51.114;5.654;2022-12-18T04:29:05;25.23;;;8.93;;
40433;SDS011;26146;51.114;5.654;2022-12-18T04:33:10;27.87;;;8.93;;
40433;SDS011;26146;51.114;5.654;2022-12-18T04:37:11;24.13;;;7.38;;
40433;SDS011;26146;51.114;5.654;2022-12-18T04:41:12;24.10;;;8.30;;
40433;SDS011;26146;51.114;5.654;2022-12-18T04:45:13;26.20;;;8.57;;
40433;SDS011;26146;51.114;5.654;2022-12-18T04:49:14;25.00;;;8.70;;
40433;SDS011;26146;51.114;5.654;2022-12-18T04:53:15;23.97;;;7.80;;
40433;SDS011;26146;51.114;5.654;2022-12-18T04:57:16;24.53;;;7.97;;
40433;SDS011;26146;51.114;5.654;2022-12-18T05:01:18;25.43;;;8.33;;
40433;SDS011;26146;51.114;5.654;2022-12-18T05:05:19;23.40;;;7.83;;
40433;SDS011;26146;51.114;5.654;2022-12-18T05:09:20;25.97;;;7.93;;
40433;SDS011;26146;51.114;5.654;2022-12-18T05:13:21;22.83;;;8.27;;
40433;SDS011;26146;51.114;5.654;2022-12-18T05:17:22;26.63;;;8.37;;
40433;SDS011;26146;51.114;5.654;2022-12-18T05:21:23;24.97;;;7.93;;
40433;SDS011;26146;51.114;5.654;2022-12-18T05:25:24;25.00;;;8.03;;
40433;SDS011;26146;51.114;5.654;2022-12-18T05:29:25;24.93;;;8.07;;
40433;SDS011;26146;51.114;5.654;2022-12-18T05:33:27;22.43;;;7.60;;
40433;SDS011;26146;51.114;5.654;2022-12-18T05:37:31;18.48;;;6.53;;
40433;SDS011;26146;51.114;5.654;2022-12-18T05:41:32;24.17;;;7.97;;
40433;SDS011;26146;51.114;5.654;2022-12-18T05:45:33;26.17;;;7.80;;
40433;SDS011;26146;51.114;5.654;2022-12-18T05:49:38;27.60;;;8.27;;
40433;SDS011;26146;51.114;5.654;2022-12-18T05:53:39;23.93;;;8.57;;
40433;SDS011;26146;51.114;5.654;2022-12-18T05:57:41;25.20;;;8.47;;
40433;SDS011;26146;51.114;5.654;2022-12-18T06:01:42;20.93;;;7.80;;
40433;SDS011;26146;51.114;5.654;2022-12-18T06:05:44;28.70;;;8.33;;
40433;SDS011;26146;51.114;5.654;2022-12-18T06:09:45;24.23;;;7.67;;
40433;SDS011;26146;51.114;5.654;2022-12-18T06:13:49;25.47;;;8.13;;
40433;SDS011;26146;51.114;5.654;2022-12-18T06:17:51;23.80;;;8.07;;
40433;SDS011;26146;51.114;5.654;2022-12-18T06:21:52;24.77;;;8.07;;
40433;SDS011;26146;51.114;5.654;2022-12-18T06:30:17;22.93;;;7.73;;
40433;SDS011;26146;51.114;5.654;2022-12-18T06:34:18;22.53;;;8.37;;
40433;SDS011;26146;51.114;5.654;2022-12-18T06:42:49;23.10;;;7.90;;
40433;SDS011;26146;51.114;5.654;2022-12-18T06:46:50;24.87;;;8.73;;
40433;SDS011;26146;51.114;5.654;2022-12-18T06:50:51;22.47;;;7.77;;
40433;SDS011;26146;51.114;5.654;2022-12-18T06:54:52;28.63;;;8.80;;
40433;SDS011;26146;51.114;5.654;2022-12-18T06:58:53;27.03;;;8.60;;
40433;SDS011;26146;51.114;5.654;2022-12-18T07:02:55;23.40;;;8.43;;
40433;SDS011;26146;51.114;5.654;2022-12-18T07:06:56;24.87;;;8.37;;
40433;SDS011;26146;51.114;5.654;2022-12-18T07:10:57;25.53;;;8.77;;
40433;SDS011;26146;51.114;5.654;2022-12-18T07:14:58;23.53;;;8.53;;
40433;SDS011;26146;51.114;5.654;2022-12-18T07:18:59;25.90;;;8.80;;
40433;SDS011;26146;51.114;5.654;2022-12-18T07:23:04;26.97;;;9.30;;
40433;SDS011;26146;51.114;5.654;2022-12-18T07:27:05;25.05;;;8.43;;
40433;SDS011;26146;51.114;5.654;2022-12-18T07:31:08;30.60;;;8.60;;
40433;SDS011;26146;51.114;5.654;2022-12-18T07:35:13;26.43;;;8.87;;
40433;SDS011;26146;51.114;5.654;2022-12-18T07:39:14;37.30;;;15.00;;
40433;SDS011;26146;51.114;5.654;2022-12-18T07:43:15;39.23;;;15.37;;
40433;SDS011;26146;51.114;5.654;2022-12-18T07:47:16;28.47;;;11.00;;
40433;SDS011;26146;51.114;5.654;2022-12-18T07:51:18;39.80;;;14.87;;
40433;SDS011;26146;51.114;5.654;2022-12-18T07:55:19;27.77;;;10.10;;
40433;SDS011;26146;51.114;5.654;2022-12-18T07:59:20;26.07;;;8.83;;
40433;SDS011;26146;51.114;5.654;2022-12-18T08:03:21;26.87;;;9.53;;
40433;SDS011;26146;51.114;5.654;2022-12-18T08:07:22;25.53;;;8.90;;
40433;SDS011;26146;51.114;5.654;2022-12-18T08:11:24;31.57;;;10.63;;
40433;SDS011;26146;51.114;5.654;2022-12-18T08:15:26;25.80;;;10.17;;
40433;SDS011;26146;51.114;5.654;2022-12-18T08:19:27;30.63;;;10.30;;
40433;SDS011;26146;51.114;5.654;2022-12-18T08:23:28;28.83;;;10.30;;
40433;SDS011;26146;51.114;5.654;2022-12-18T08:27:29;23.93;;;9.27;;
40433;SDS011;26146;51.114;5.654;2022-12-18T08:31:30;27.97;;;9.97;;
40433;SDS011;26146;51.114;5.654;2022-12-18T08:35:34;27.53;;;10.37;;
40433;SDS011;26146;51.114;5.654;2022-12-18T08:39:36;22.52;;;8.15;;
40433;SDS011;26146;51.114;5.654;2022-12-18T08:43:37;27.87;;;9.93;;
40433;SDS011;26146;51.114;5.654;2022-12-18T08:47:57;27.47;;;10.07;;
40433;SDS011;26146;51.114;5.654;2022-12-18T08:51:58;25.50;;;9.93;;
40433;SDS011;26146;51.114;5.654;2022-12-18T08:55:59;28.43;;;9.93;;
40433;SDS011;26146;51.114;5.654;2022-12-18T09:00:00;29.60;;;10.83;;
40433;SDS011;26146;51.114;5.654;2022-12-18T09:04:01;28.13;;;10.57;;
40433;SDS011;26146;51.114;5.654;2022-12-18T09:08:02;30.03;;;11.10;;
40433;SDS011;26146;51.114;5.654;2022-12-18T09:12:03;27.90;;;10.60;;
40433;SDS011;26146;51.114;5.654;2022-12-18T09:16:04;30.00;;;11.53;;
40433;SDS011;26146;51.114;5.654;2022-12-18T09:20:05;30.50;;;11.33;;
40433;SDS011;26146;51.114;5.654;2022-12-18T09:24:08;31.50;;;11.47;;
40433;SDS011;26146;51.114;5.654;2022-12-18T09:28:16;30.93;;;11.33;;
40433;SDS011;26146;51.114;5.654;2022-12-18T09:32:21;31.07;;;12.10;;
40433;SDS011;26146;51.114;5.654;2022-12-18T09:36:22;29.27;;;11.20;;
40433;SDS011;26146;51.114;5.654;2022-12-18T09:40:24;33.10;;;11.63;;
40433;SDS011;26146;51.114;5.654;2022-12-18T09:48:42;30.53;;;11.30;;
40433;SDS011;26146;51.114;5.654;2022-12-18T09:52:47;31.20;;;12.03;;
40433;SDS011;26146;51.114;5.654;2022-12-18T09:56:52;33.40;;;11.67;;
40433;SDS011;26146;51.114;5.654;2022-12-18T10:00:53;31.17;;;12.40;;
40433;SDS011;26146;51.114;5.654;2022-12-18T10:04:59;34.03;;;12.33;;
40433;SDS011;26146;51.114;5.654;2022-12-18T10:09:03;31.80;;;11.47;;
40433;SDS011;26146;51.114;5.654;2022-12-18T10:17:19;30.20;;;11.50;;
40433;SDS011;26146;51.114;5.654;2022-12-18T10:26:04;27.73;;;11.23;;
40433;SDS011;26146;51.114;5.654;2022-12-18T10:30:16;27.83;;;11.40;;
40433;SDS011;26146;51.114;5.654;2022-12-18T10:34:19;28.13;;;10.97;;
40433;SDS011;26146;51.114;5.654;2022-12-18T10:38:27;28.07;;;11.03;;
40433;SDS011;26146;51.114;5.654;2022-12-18T10:42:29;26.80;;;10.80;;
40433;SDS011;26146;51.114;5.654;2022-12-18T10:46:30;28.57;;;11.30;;
40433;SDS011;26146;51.114;5.654;2022-12-18T10:50:33;26.83;;;11.03;;
40433;SDS011;26146;51.114;5.654;2022-12-18T10:54:37;27.50;;;11.37;;
40433;SDS011;26146;51.114;5.654;2022-12-18T10:58:41;31.37;;;11.20;;
40433;SDS011;26146;51.114;5.654;2022-12-18T11:02:41;28.70;;;11.30;;
40433;SDS011;26146;51.114;5.654;2022-12-18T11:06:52;27.60;;;10.73;;
40433;SDS011;26146;51.114;5.654;2022-12-18T11:10:56;29.20;;;10.83;;
40433;SDS011;26146;51.114;5.654;2022-12-18T11:14:57;26.47;;;11.10;;
40433;SDS011;26146;51.114;5.654;2022-12-18T11:23:22;28.10;;;11.30;;
40433;SDS011;26146;51.114;5.654;2022-12-18T11:27:24;28.77;;;11.73;;
40433;SDS011;26146;51.114;5.654;2022-12-18T11:31:27;28.43;;;10.83;;
40433;SDS011;26146;51.114;5.654;2022-12-18T11:39:42;31.90;;;12.17;;
40433;SDS011;26146;51.114;5.654;2022-12-18T11:43:54;28.43;;;11.27;;
40433;SDS011;26146;51.114;5.654;2022-12-18T11:52:19;31.70;;;12.77;;
40433;SDS011;26146;51.114;5.654;2022-12-18T11:56:31;28.13;;;11.23;;
40433;SDS011;26146;51.114;5.654;2022-12-18T12:00:44;29.30;;;11.97;;
40433;SDS011;26146;51.114;5.654;2022-12-18T12:05:18;28.20;;;11.70;;
40433;SDS011;26146;51.114;5.654;2022-12-18T12:13:39;29.90;;;11.87;;
40433;SDS011;26146;51.114;5.654;2022-12-18T12:22:44;25.93;;;11.53;;
40433;SDS011;26146;51.114;5.654;2022-12-18T12:39:35;28.90;;;11.73;;
40433;SDS011;26146;51.114;5.654;2022-12-18T12:43:45;25.30;;;11.53;;
40433;SDS011;26146;51.114;5.654;2022-12-18T12:47:50;30.97;;;11.50;;
40433;SDS011;26146;51.114;5.654;2022-12-18T12:51:55;26.33;;;11.43;;
40433;SDS011;26146;51.114;5.654;2022-12-18T12:56:00;27.57;;;11.50;;
40433;SDS011;26146;51.114;5.654;2022-12-18T13:00:04;29.50;;;11.87;;
40433;SDS011;26146;51.114;5.654;2022-12-18T13:04:27;28.07;;;11.47;;
40433;SDS011;26146;51.114;5.654;2022-12-18T13:08:51;29.57;;;11.83;;
40433;SDS011;26146;51.114;5.654;2022-12-18T13:12:58;28.93;;;11.80;;
40433;SDS011;26146;51.114;5.654;2022-12-18T13:21:32;26.53;;;11.43;;
40433;SDS011;26146;51.114;5.654;2022-12-18T13:25:37;29.57;;;11.97;;
40433;SDS011;26146;51.114;5.654;2022-12-18T13:29:43;29.15;;;12.13;;
40433;SDS011;26146;51.114;5.654;2022-12-18T13:33:45;26.47;;;11.20;;
40433;SDS011;26146;51.114;5.654;2022-12-18T13:37:53;28.17;;;11.83;;
40433;SDS011;26146;51.114;5.654;2022-12-18T13:46:06;25.00;;;11.27;;
40433;SDS011;26146;51.114;5.654;2022-12-18T13:50:22;27.33;;;11.70;;
40433;SDS011;26146;51.114;5.654;2022-12-18T13:54:39;31.13;;;12.23;;
40433;SDS011;26146;51.114;5.654;2022-12-18T13:58:41;27.80;;;11.97;;
40433;SDS011;26146;51.114;5.654;2022-12-18T14:02:44;29.97;;;12.00;;
40433;SDS011;26146;51.114;5.654;2022-12-18T14:06:46;25.90;;;11.10;;
40433;SDS011;26146;51.114;5.654;2022-12-18T14:10:49;29.40;;;12.37;;
40433;SDS011;26146;51.114;5.654;2022-12-18T14:14:51;26.60;;;11.60;;
40433;SDS011;26146;51.114;5.654;2022-12-18T14:18:54;27.30;;;11.90;;
40433;SDS011;26146;51.114;5.654;2022-12-18T14:22:58;25.85;;;11.05;;
40433;SDS011;26146;51.114;5.654;2022-12-18T14:27:12;27.07;;;11.63;;
40433;SDS011;26146;51.114;5.654;2022-12-18T14:31:22;27.07;;;11.93;;
40433;SDS011;26146;51.114;5.654;2022-12-18T14:35:27;28.20;;;12.37;;
40433;SDS011;26146;51.114;5.654;2022-12-18T14:39:28;28.60;;;12.23;;
40433;SDS011;26146;51.114;5.654;2022-12-18T14:43:31;27.37;;;11.93;;
40433;SDS011;26146;51.114;5.654;2022-12-18T14:47:34;25.83;;;11.43;;
40433;SDS011;26146;51.114;5.654;2022-12-18T14:51:35;25.77;;;10.83;;
40433;SDS011;26146;51.114;5.654;2022-12-18T14:55:37;29.03;;;11.83;;
40433;SDS011;26146;51.114;5.654;2022-12-18T14:59:38;25.83;;;11.10;;
40433;SDS011;26146;51.114;5.654;2022-12-18T15:03:42;26.17;;;11.80;;
40433;SDS011;26146;51.114;5.654;2022-12-18T15:07:47;26.27;;;11.82;;
40433;SDS011;26146;51.114;5.654;2022-12-18T15:11:56;28.47;;;11.47;;
40433;SDS011;26146;51.114;5.654;2022-12-18T15:16:01;28.17;;;12.67;;
40433;SDS011;26146;51.114;5.654;2022-12-18T15:20:09;28.27;;;12.23;;
40433;SDS011;26146;51.114;5.654;2022-12-18T15:24:22;27.25;;;12.82;;
40433;SDS011;26146;51.114;5.654;2022-12-18T15:28:35;29.30;;;12.23;;
40433;SDS011;26146;51.114;5.654;2022-12-18T15:33:05;26.70;;;11.73;;
40433;SDS011;26146;51.114;5.654;2022-12-18T15:37:22;26.50;;;11.10;;
40433;SDS011;26146;51.114;5.654;2022-12-18T15:41:23;26.47;;;11.30;;
40433;SDS011;26146;51.114;5.654;2022-12-18T15:45:25;26.93;;;11.97;;
40433;SDS011;26146;51.114;5.654;2022-12-18T15:49:26;29.17;;;11.87;;
40433;SDS011;26146;51.114;5.654;2022-12-18T15:53:31;28.90;;;12.43;;
40433;SDS011;26146;51.114;5.654;2022-12-18T15:57:33;27.80;;;11.53;;
40433;SDS011;26146;51.114;5.654;2022-12-18T16:01:34;30.43;;;13.03;;
40433;SDS011;26146;51.114;5.654;2022-12-18T16:05:35;29.83;;;11.97;;
40433;SDS011;26146;51.114;5.654;2022-12-18T16:09:36;38.13;;;17.10;;
40433;SDS011;26146;51.114;5.654;2022-12-18T16:13:38;34.23;;;16.00;;
40433;SDS011;26146;51.114;5.654;2022-12-18T16:17:40;33.80;;;13.67;;
40433;SDS011;26146;51.114;5.654;2022-12-18T16:21:41;29.27;;;13.07;;
40433;SDS011;26146;51.114;5.654;2022-12-18T16:25:45;32.50;;;13.20;;
40433;SDS011;26146;51.114;5.654;2022-12-18T16:29:48;30.50;;;12.83;;
40433;SDS011;26146;51.114;5.654;2022-12-18T16:34:09;31.67;;;12.83;;
40433;SDS011;26146;51.114;5.654;2022-12-18T16:38:31;31.97;;;13.97;;
40433;SDS011;26146;51.114;5.654;2022-12-18T16:42:52;32.57;;;12.90;;
40433;SDS011;26146;51.114;5.654;2022-12-18T16:47:01;32.30;;;13.30;;
40433;SDS011;26146;51.114;5.654;2022-12-18T16:51:03;32.90;;;14.00;;
40433;SDS011;26146;51.114;5.654;2022-12-18T16:55:05;31.60;;;14.27;;
40433;SDS011;26146;51.114;5.654;2022-12-18T16:59:07;31.87;;;14.53;;
40433;SDS011;26146;51.114;5.654;2022-12-18T17:03:10;35.63;;;14.13;;
40433;SDS011;26146;51.114;5.654;2022-12-18T17:07:11;63.67;;;31.53;;
40433;SDS011;26146;51.114;5.654;2022-12-18T17:11:13;34.30;;;14.60;;
40433;SDS011;26146;51.114;5.654;2022-12-18T17:15:14;34.93;;;14.80;;
40433;SDS011;26146;51.114;5.654;2022-12-18T17:19:15;33.30;;;13.63;;
40433;SDS011;26146;51.114;5.654;2022-12-18T17:23:18;31.63;;;14.53;;
40433;SDS011;26146;51.114;5.654;2022-12-18T17:27:21;32.10;;;13.30;;
40433;SDS011;26146;51.114;5.654;2022-12-18T17:31:23;34.20;;;13.90;;
40433;SDS011;26146;51.114;5.654;2022-12-18T17:35:28;33.87;;;14.30;;
40433;SDS011;26146;51.114;5.654;2022-12-18T17:39:29;30.77;;;13.40;;
40433;SDS011;26146;51.114;5.654;2022-12-18T17:43:30;30.80;;;14.10;;
40433;SDS011;26146;51.114;5.654;2022-12-18T17:47:34;35.27;;;14.43;;
40433;SDS011;26146;51.114;5.654;2022-12-18T17:51:35;31.87;;;13.80;;
40433;SDS011;26146;51.114;5.654;2022-12-18T17:55:36;34.50;;;14.80;;
40433;SDS011;26146;51.114;5.654;2022-12-18T17:59:37;33.53;;;14.23;;
40433;SDS011;26146;51.114;5.654;2022-12-18T18:03:38;37.13;;;14.90;;
40433;SDS011;26146;51.114;5.654;2022-12-18T18:07:40;61.97;;;21.97;;
40433;SDS011;26146;51.114;5.654;2022-12-18T18:11:41;36.83;;;15.73;;
40433;SDS011;26146;51.114;5.654;2022-12-18T18:16:00;34.90;;;15.73;;
40433;SDS011;26146;51.114;5.654;2022-12-18T18:20:02;35.30;;;14.83;;
40433;SDS011;26146;51.114;5.654;2022-12-18T18:24:05;34.93;;;14.63;;
40433;SDS011;26146;51.114;5.654;2022-12-18T18:28:07;39.63;;;15.80;;
40433;SDS011;26146;51.114;5.654;2022-12-18T18:32:08;38.40;;;16.17;;
40433;SDS011;26146;51.114;5.654;2022-12-18T18:36:11;37.00;;;15.60;;
40433;SDS011;26146;51.114;5.654;2022-12-18T18:40:12;33.93;;;15.40;;
40433;SDS011;26146;51.114;5.654;2022-12-18T18:44:13;39.13;;;17.00;;
40433;SDS011;26146;51.114;5.654;2022-12-18T18:48:14;35.20;;;15.33;;
40433;SDS011;26146;51.114;5.654;2022-12-18T18:52:15;36.03;;;15.90;;
40433;SDS011;26146;51.114;5.654;2022-12-18T18:56:19;36.50;;;15.73;;
40433;SDS011;26146;51.114;5.654;2022-12-18T19:00:21;39.57;;;17.37;;
40433;SDS011;26146;51.114;5.654;2022-12-18T19:04:22;38.17;;;17.47;;
40433;SDS011;26146;51.114;5.654;2022-12-18T19:08:24;38.00;;;16.17;;
40433;SDS011;26146;51.114;5.654;2022-12-18T19:12:26;39.03;;;16.77;;
40433;SDS011;26146;51.114;5.654;2022-12-18T19:16:46;35.37;;;16.63;;
40433;SDS011;26146;51.114;5.654;2022-12-18T19:20:57;38.13;;;16.33;;
40433;SDS011;26146;51.114;5.654;2022-12-18T19:24:59;36.87;;;16.33;;
40433;SDS011;26146;51.114;5.654;2022-12-18T19:29:01;34.57;;;15.87;;
40433;SDS011;26146;51.114;5.654;2022-12-18T19:33:03;36.53;;;15.30;;
40433;SDS011;26146;51.114;5.654;2022-12-18T19:37:05;36.20;;;15.87;;
40433;SDS011;26146;51.114;5.654;2022-12-18T19:41:06;39.13;;;17.33;;
40433;SDS011;26146;51.114;5.654;2022-12-18T19:45:08;41.03;;;16.97;;
40433;SDS011;26146;51.114;5.654;2022-12-18T19:49:09;40.23;;;16.60;;
40433;SDS011;26146;51.114;5.654;2022-12-18T19:53:10;37.33;;;16.97;;
40433;SDS011;26146;51.114;5.654;2022-12-18T19:57:11;36.57;;;16.47;;
40433;SDS011;26146;51.114;5.654;2022-12-18T20:01:13;37.30;;;16.50;;
40433;SDS011;26146;51.114;5.654;2022-12-18T20:05:15;39.87;;;16.83;;
40433;SDS011;26146;51.114;5.654;2022-12-18T20:09:17;72.53;;;31.60;;
40433;SDS011;26146;51.114;5.654;2022-12-18T20:13:18;46.10;;;18.90;;
40433;SDS011;26146;51.114;5.654;2022-12-18T20:17:20;41.53;;;18.37;;
40433;SDS011;26146;51.114;5.654;2022-12-18T20:21:21;39.10;;;16.37;;
40433;SDS011;26146;51.114;5.654;2022-12-18T20:25:22;40.50;;;17.77;;
40433;SDS011;26146;51.114;5.654;2022-12-18T20:29:23;40.40;;;17.20;;
40433;SDS011;26146;51.114;5.654;2022-12-18T20:33:26;41.00;;;17.60;;
40433;SDS011;26146;51.114;5.654;2022-12-18T20:37:27;40.50;;;17.97;;
40433;SDS011;26146;51.114;5.654;2022-12-18T20:41:28;42.13;;;18.37;;
40433;SDS011;26146;51.114;5.654;2022-12-18T20:45:29;40.07;;;17.50;;
40433;SDS011;26146;51.114;5.654;2022-12-18T20:49:30;41.57;;;17.10;;
40433;SDS011;26146;51.114;5.654;2022-12-18T20:53:32;40.50;;;17.10;;
40433;SDS011;26146;51.114;5.654;2022-12-18T20:57:34;41.20;;;17.47;;
40433;SDS011;26146;51.114;5.654;2022-12-18T21:01:35;43.33;;;17.73;;
40433;SDS011;26146;51.114;5.654;2022-12-18T21:05:38;43.40;;;18.17;;
40433;SDS011;26146;51.114;5.654;2022-12-18T21:09:39;42.87;;;18.07;;
40433;SDS011;26146;51.114;5.654;2022-12-18T21:13:40;41.03;;;17.60;;
40433;SDS011;26146;51.114;5.654;2022-12-18T21:17:40;41.50;;;17.73;;
40433;SDS011;26146;51.114;5.654;2022-12-18T21:21:42;44.90;;;18.60;;
40433;SDS011;26146;51.114;5.654;2022-12-18T21:25:43;41.03;;;19.60;;
40433;SDS011;26146;51.114;5.654;2022-12-18T21:29:44;42.60;;;17.80;;
40433;SDS011;26146;51.114;5.654;2022-12-18T21:33:46;45.17;;;19.27;;
40433;SDS011;26146;51.114;5.654;2022-12-18T21:37:55;44.00;;;19.07;;
40433;SDS011;26146;51.114;5.654;2022-12-18T21:41:56;45.87;;;19.10;;
40433;SDS011;26146;51.114;5.654;2022-12-18T21:46:15;44.13;;;19.27;;
40433;SDS011;26146;51.114;5.654;2022-12-18T21:50:17;46.53;;;19.17;;
40433;SDS011;26146;51.114;5.654;2022-12-18T21:54:18;43.03;;;18.67;;
40433;SDS011;26146;51.114;5.654;2022-12-18T21:58:19;43.03;;;18.33;;
40433;SDS011;26146;51.114;5.654;2022-12-18T22:02:20;41.23;;;18.60;;
40433;SDS011;26146;51.114;5.654;2022-12-18T22:06:22;42.97;;;19.50;;
40433;SDS011;26146;51.114;5.654;2022-12-18T22:10:23;47.97;;;20.47;;
40433;SDS011;26146;51.114;5.654;2022-12-18T22:14:24;50.07;;;19.63;;
40433;SDS011;26146;51.114;5.654;2022-12-18T22:18:25;47.30;;;19.53;;
40433;SDS011;26146;51.114;5.654;2022-12-18T22:22:26;49.60;;;19.47;;
40433;SDS011;26146;51.114;5.654;2022-12-18T22:26:28;49.00;;;19.20;;
40433;SDS011;26146;51.114;5.654;2022-12-18T22:30:30;43.93;;;18.93;;
40433;SDS011;26146;51.114;5.654;2022-12-18T22:34:31;43.57;;;17.87;;
40433;SDS011;26146;51.114;5.654;2022-12-18T22:38:33;48.07;;;18.80;;
40433;SDS011;26146;51.114;5.654;2022-12-18T22:42:34;45.70;;;18.57;;
40433;SDS011;26146;51.114;5.654;2022-12-18T22:46:36;45.67;;;18.70;;
40433;SDS011;26146;51.114;5.654;2022-12-18T22:50:39;50.70;;;18.80;;
40433;SDS011;26146;51.114;5.654;2022-12-18T22:54:40;46.87;;;18.63;;
40433;SDS011;26146;51.114;5.654;2022-12-18T22:58:41;43.17;;;18.47;;
40433;SDS011;26146;51.114;5.654;2022-12-18T23:02:43;43.70;;;17.57;;
40433;SDS011;26146;51.114;5.654;2022-12-18T23:06:44;45.93;;;18.07;;
40433;SDS011;26146;51.114;5.654;2022-12-18T23:10:45;45.43;;;18.53;;
40433;SDS011;26146;51.114;5.654;2022-12-18T23:14:46;44.37;;;18.27;;
40433;SDS011;26146;51.114;5.654;2022-12-18T23:18:51;45.00;;;18.30;;
40433;SDS011;26146;51.114;5.654;2022-12-18T23:22:54;47.33;;;18.90;;
40433;SDS011;26146;51.114;5.654;2022-12-18T23:26:55;52.07;;;19.43;;
40433;SDS011;26146;51.114;5.654;2022-12-18T23:31:00;45.90;;;19.10;;
40433;SDS011;26146;51.114;5.654;2022-12-18T23:35:23;47.73;;;18.27;;
40433;SDS011;26146;51.114;5.654;2022-12-18T23:39:24;47.63;;;18.67;;
40433;SDS011;26146;51.114;5.654;2022-12-18T23:43:26;44.13;;;18.40;;
40433;SDS011;26146;51.114;5.654;2022-12-18T23:47:27;48.57;;;19.57;;
40433;SDS011;26146;51.114;5.654;2022-12-18T23:51:29;45.67;;;18.50;;
40433;SDS011;26146;51.114;5.654;2022-12-18T23:55:31;46.97;;;18.63;;
